Ave Maria, Florida
Current Conditions -  °F | °C
As of 1:55 PM on Sunday 23 Nov 2014 (Local Time) from KIMM Reporting Station
Scattered Clouds Scattered Clouds  
Wind Chill: 88°   Ceiling: Unl
Heat Index: 98°   Visibility: 5mi
Dew Point: 75°   Wind: 13mph
Humidity: 66%   Direction: 170°S
Pressure: 29.93"   Gusts: 21mph
Location:  26.4288°N, 81.4387°W
Report Text: KIMM 231855Z AUTO 17011G18KT 5SM SCT033 SCT050 SCT070 31/24 A2993 RMK A01 P000
Loading
Personal Weather Stations






























Interactive Weather Map New forecast layout! Learn more

10-Day Weather Forecast

Advertisements
Track Severe Weather on mobile